Time;durP1;ratioP1;P1;durP2;ratioP2;P2;SDS_P1;SDS_P2;PMS_P1;PMS_P2;Temp;Humidity;BMP_temperature;BMP_pressure;BME280_temperature;BME280_humidity;BME280_pressure;Samples;Min_cycle;Max_cycle;Signal;HPM_P1;HPM_P2
2024/04/12 00:01:40;;;;;;;5.23;4.70;;;;;;;-144.56;100.00;-69048.50;5480963;25;20224;-84
2024/04/12 00:04:09;;;;;;;8.00;4.40;;;;;;;-144.56;100.00;-69048.50;5528491;25;20236;-85
2024/04/12 00:06:37;;;;;;;5.00;4.43;;;;;;;-144.56;100.00;-69048.50;5531550;25;20254;-84
2024/04/12 00:09:09;;;;;;;5.57;4.70;;;;;;;-144.56;100.00;-69048.50;5528156;25;20355;-84
2024/04/12 00:11:38;;;;;;;5.80;4.90;;;;;;;-144.56;100.00;-69048.50;5530580;25;20232;-84
2024/04/12 00:14:05;;;;;;;5.23;4.13;;;;;;;-144.56;100.00;-69048.50;5529051;25;20224;-84
2024/04/12 00:16:37;;;;;;;5.97;4.63;;;;;;;-144.56;100.00;-69048.50;5530818;25;20232;-84
2024/04/12 00:19:07;;;;;;;5.87;4.67;;;;;;;-144.56;100.00;-69048.50;5517351;25;20266;-83
2024/04/12 00:21:41;;;;;;;5.70;4.73;;;;;;;-144.56;100.00;-69048.50;5519417;25;20325;-84
2024/04/12 00:24:11;;;;;;;7.33;4.83;;;;;;;-144.56;100.00;-69048.50;5524541;26;20266;-84
2024/04/12 00:26:42;;;;;;;6.70;4.50;;;;;;;-144.56;100.00;-69048.50;5502802;26;20278;-84
2024/04/12 00:29:15;;;;;;;7.50;5.83;;;;;;;-144.56;100.00;-69048.50;5526580;25;20864;-84
2024/04/12 00:31:46;;;;;;;7.13;5.43;;;;;;;-144.56;100.00;-69048.50;5522522;25;20230;-84
2024/04/12 00:34:14;;;;;;;4.93;4.43;;;;;;;-144.56;100.00;-69048.50;5518215;25;20253;-84
2024/04/12 00:36:48;;;;;;;5.00;4.50;;;;;;;-144.56;100.00;-69048.50;5518916;26;20295;-84
2024/04/12 00:39:35;;;;;;;5.47;4.43;;;;;;;-144.56;100.00;-69048.50;5520364;25;20341;-84
2024/04/12 00:42:03;;;;;;;7.70;5.00;;;;;;;-144.56;100.00;-69048.50;5492554;26;20657;-84
2024/04/12 00:44:29;;;;;;;6.13;4.83;;;;;;;-144.56;100.00;-69048.50;5524278;25;20335;-84
2024/04/12 00:46:59;;;;;;;8.20;5.50;;;;;;;-144.56;100.00;-69048.50;5530812;25;20610;-84
2024/04/12 00:49:30;;;;;;;5.60;4.07;;;;;;;-144.56;100.00;-69048.50;5509000;25;20232;-84
2024/04/12 00:52:04;;;;;;;9.47;5.30;;;;;;;-144.56;100.00;-69048.50;5530690;25;20227;-84
2024/04/12 00:54:32;;;;;;;5.77;4.50;;;;;;;-144.56;100.00;-69048.50;5528138;25;20232;-84
2024/04/12 00:57:02;;;;;;;7.83;4.87;;;;;;;-144.56;100.00;-69048.50;5529700;25;20271;-84
2024/04/12 00:59:31;;;;;;;5.90;4.53;;;;;;;-144.56;100.00;-69048.50;5526746;26;20589;-84
2024/04/12 01:01:59;;;;;;;10.67;4.33;;;;;;;-144.56;100.00;-69048.50;5530458;25;20344;-84
2024/04/12 01:04:26;;;;;;;6.30;4.70;;;;;;;-144.56;100.00;-69048.50;5527233;25;20231;-84
2024/04/12 01:06:54;;;;;;;5.60;4.93;;;;;;;-144.56;100.00;-69048.50;5531040;25;20215;-84
2024/04/12 01:09:23;;;;;;;6.27;4.40;;;;;;;-144.56;100.00;-69048.50;5527118;25;20227;-84
2024/04/12 01:11:51;;;;;;;5.43;4.80;;;;;;;-144.56;100.00;-69048.50;5529757;25;20295;-84
2024/04/12 01:14:17;;;;;;;7.37;4.30;;;;;;;-144.56;100.00;-69048.50;5527503;25;20282;-84
2024/04/12 01:16:46;;;;;;;6.13;4.83;;;;;;;-144.56;100.00;-69048.50;5530335;25;20224;-85
2024/04/12 01:19:12;;;;;;;6.37;5.07;;;;;;;-144.56;100.00;-69048.50;5527576;25;20228;-85
2024/04/12 01:21:44;;;;;;;5.10;4.37;;;;;;;-144.56;100.00;-69048.50;5530122;25;20589;-84
2024/04/12 01:24:10;;;;;;;5.20;4.70;;;;;;;-144.56;100.00;-69048.50;5527363;25;20291;-84
2024/04/12 01:26:41;;;;;;;6.70;5.10;;;;;;;-144.56;100.00;-69048.50;5529793;25;20320;-84
2024/04/12 01:29:07;;;;;;;4.87;4.40;;;;;;;-144.56;100.00;-69048.50;5527797;25;20236;-84
2024/04/12 01:31:38;;;;;;;8.27;5.40;;;;;;;-144.56;100.00;-69048.50;5530006;25;20270;-84
2024/04/12 01:34:12;;;;;;;5.50;5.00;;;;;;;-144.56;100.00;-69048.50;5526954;25;20223;-84
2024/04/12 01:36:43;;;;;;;6.57;4.97;;;;;;;-144.56;100.00;-69048.50;5530088;25;20224;-84
2024/04/12 01:39:11;;;;;;;7.83;5.40;;;;;;;-144.56;100.00;-69048.50;5526968;25;20231;-84
2024/04/12 01:41:44;;;;;;;7.07;4.63;;;;;;;-144.56;100.00;-69048.50;5529565;25;20563;-84
2024/04/12 01:44:12;;;;;;;5.07;4.57;;;;;;;-144.56;100.00;-69048.50;5527284;25;20719;-84
2024/04/12 01:46:41;;;;;;;6.47;5.40;;;;;;;-144.56;100.00;-69048.50;5529631;25;20714;-85
2024/04/12 01:49:10;;;;;;;8.30;5.03;;;;;;;-144.56;100.00;-69048.50;5527205;25;20232;-85
2024/04/12 01:51:41;;;;;;;8.03;4.83;;;;;;;-144.56;100.00;-69048.50;5529517;25;20270;-84
2024/04/12 01:54:13;;;;;;;5.70;5.10;;;;;;;-144.56;100.00;-69048.50;5526885;25;20282;-84
2024/04/12 01:56:47;;;;;;;8.87;5.00;;;;;;;-144.56;100.00;-69048.50;5529891;25;20773;-84
2024/04/12 01:59:15;;;;;;;4.73;4.40;;;;;;;-144.56;100.00;-69048.50;5526306;25;20274;-84
2024/04/12 02:01:45;;;;;;;8.10;5.40;;;;;;;-144.56;100.00;-69048.50;5530385;26;20284;-83
2024/04/12 02:05:01;;;;;;;6.80;5.27;;;;;;;16.90;49.54;97364.41;5435244;25;3221009;-84
2024/04/12 02:07:27;;;;;;;5.83;5.13;;;;;;;16.75;49.25;97349.44;5522659;25;20610;-83
2024/04/12 02:10:07;;;;;;;5.80;5.20;;;;;;;16.87;49.60;97357.72;5520011;25;20275;-82
2024/04/12 02:12:36;;;;;;;8.30;4.97;;;;;;;16.71;49.36;97354.59;5521565;25;20256;-82
2024/04/12 02:15:19;;;;;;;11.10;6.13;;;;;;;16.77;49.56;97348.03;5547410;25;20665;-83
2024/04/12 02:17:47;;;;;;;5.27;4.67;;;;;;;16.70;50.03;97362.97;5529556;25;20311;-82
2024/04/12 02:20:19;;;;;;;7.37;5.00;;;;;;;16.71;50.15;97376.09;5523522;25;20296;-83
2024/04/12 02:22:45;;;;;;;13.40;5.93;;;;;;;16.55;50.00;97346.13;5521237;25;20223;-83
2024/04/12 02:25:17;;;;;;;10.00;5.07;;;;;;;16.67;50.13;97371.66;5531624;25;20599;-82
2024/04/12 02:27:44;;;;;;;7.70;4.63;;;;;;;16.53;50.00;97347.50;5515115;25;20232;-83
2024/04/12 02:30:14;;;;;;;5.07;4.47;;;;;;;16.71;50.21;97369.94;5509816;25;20236;-83
2024/04/12 02:32:40;;;;;;;8.67;5.30;;;;;;;16.69;50.27;97372.13;5524358;25;20711;-82
2024/04/12 02:35:08;;;;;;;5.57;5.07;;;;;;;16.55;50.46;97356.06;5512792;25;20225;-82
2024/04/12 02:37:37;;;;;;;5.67;5.03;;;;;;;16.63;50.23;97374.16;5538437;25;20331;-82
2024/04/12 02:40:06;;;;;;;5.20;4.77;;;;;;;16.56;50.39;97366.50;5539146;25;20243;-83
2024/04/12 02:42:33;;;;;;;5.97;4.87;;;;;;;16.55;50.48;97358.75;5543758;25;20224;-83
2024/04/12 02:45:05;;;;;;;5.47;4.97;;;;;;;16.52;50.57;97359.38;5547517;25;20223;-82
2024/04/12 02:47:30;;;;;;;7.00;5.33;;;;;;;16.50;50.73;97354.31;5544119;25;20300;-83
2024/04/12 02:49:59;;;;;;;8.27;5.30;;;;;;;16.47;50.85;97371.03;5525100;25;20336;-82
2024/04/12 02:52:27;;;;;;;6.37;5.67;;;;;;;16.54;50.82;97365.25;5506476;25;20624;-83
2024/04/12 02:54:58;;;;;;;6.63;5.63;;;;;;;16.41;50.81;97352.66;5544224;25;20592;-82
2024/04/12 02:57:23;;;;;;;7.97;5.80;;;;;;;16.33;51.10;97333.47;5543875;25;20227;-82
2024/04/12 02:59:53;;;;;;;9.67;5.50;;;;;;;16.62;50.97;97367.19;5547119;25;20270;-83
2024/04/12 03:02:19;;;;;;;5.70;5.20;;;;;;;16.56;50.98;97374.56;5507348;25;20232;-83
2024/04/12 03:04:48;;;;;;;7.33;4.63;;;;;;;16.42;50.54;97344.31;5531083;25;20282;-82
2024/04/12 03:07:14;;;;;;;8.80;5.90;;;;;;;16.60;50.68;97359.44;5543998;25;20219;-81
2024/04/12 03:09:44;;;;;;;7.23;5.40;;;;;;;16.64;50.94;97375.75;5538338;25;20236;-81
2024/04/12 03:12:12;;;;;;;10.40;6.27;;;;;;;16.56;50.70;97353.06;5507312;26;20449;-80
2024/04/12 03:14:41;;;;;;;5.80;5.10;;;;;;;16.70;50.89;97379.13;5525861;25;20228;-80
2024/04/12 03:17:07;;;;;;;5.93;5.37;;;;;;;16.51;51.19;97366.63;5528427;26;20734;-79
2024/04/12 03:19:36;;;;;;;6.70;5.70;;;;;;;16.39;51.86;97364.50;5529140;26;20274;-79
2024/04/12 03:22:01;;;;;;;5.90;5.27;;;;;;;16.20;51.35;97338.91;5491272;26;20241;-79
2024/04/12 03:24:30;;;;;;;6.60;5.97;;;;;;;16.43;51.21;97366.59;5493364;26;20337;-79
2024/04/12 03:26:56;;;;;;;6.00;4.90;;;;;;;16.56;51.66;97388.00;5510614;26;20278;-86
2024/04/12 03:29:27;;;;;;;7.33;6.03;;;;;;;16.37;51.59;97364.00;5531183;26;20301;-87
2024/04/12 03:31:53;;;;;;;6.73;5.23;;;;;;;16.57;51.14;97378.88;5512776;26;20248;-80
2024/04/12 03:34:24;;;;;;;10.30;5.50;;;;;;;16.56;51.03;97382.63;5525034;26;20343;-80
2024/04/12 03:36:57;;;;;;;5.90;5.37;;;;;;;16.44;51.06;97358.22;5498780;26;20338;-81
2024/04/12 03:39:31;;;;;;;9.23;5.13;;;;;;;16.47;51.62;97381.78;5529816;26;20760;-88
2024/04/12 03:42:03;;;;;;;6.50;5.90;;;;;;;16.44;51.62;97386.97;5500305;26;20232;-87
2024/04/12 03:44:36;;;;;;;9.57;5.77;;;;;;;16.55;51.49;97391.00;5514277;26;20236;-88
2024/04/12 03:47:07;;;;;;;8.47;5.63;;;;;;;16.53;51.45;97391.34;5529899;26;20569;-87
2024/04/12 03:49:38;;;;;;;9.80;5.73;;;;;;;16.32;51.86;97360.66;5495622;26;20277;-87
2024/04/12 03:52:12;;;;;;;6.67;5.03;;;;;;;16.10;51.71;97332.66;5507175;26;20686;-87
2024/04/12 03:54:40;;;;;;;6.60;5.73;;;;;;;16.41;52.18;97379.50;5531479;26;20224;-87
2024/04/12 03:57:07;;;;;;;7.17;5.20;;;;;;;16.53;51.85;97395.88;5513163;26;20719;-88
2024/04/12 03:59:38;;;;;;;6.00;5.37;;;;;;;16.58;51.38;97398.47;5531217;26;20287;-88
2024/04/12 04:02:09;;;;;;;7.83;5.60;;;;;;;16.63;51.65;97395.66;5492168;26;20263;-88
2024/04/12 04:04:44;;;;;;;5.90;5.30;;;;;;;16.58;51.81;97396.59;5491669;26;20240;-87
2024/04/12 04:07:15;;;;;;;9.83;5.73;;;;;;;16.41;51.33;97366.06;5509868;26;20683;-87
2024/04/12 04:09:42;;;;;;;6.93;5.50;;;;;;;16.44;51.89;97382.38;5517519;26;20262;-88
2024/04/12 04:12:14;;;;;;;5.77;5.27;;;;;;;16.56;51.73;97412.19;5493672;26;20220;-87
2024/04/12 04:14:48;;;;;;;8.80;5.83;;;;;;;16.49;52.11;97408.34;5491539;26;20248;-88
2024/04/12 04:17:18;;;;;;;6.43;5.60;;;;;;;16.50;51.74;97410.75;5494937;26;20684;-88
2024/04/12 04:19:45;;;;;;;11.70;5.60;;;;;;;16.53;51.98;97423.59;5503627;26;20261;-86
2024/04/12 04:22:39;;;;;;;5.67;5.17;;;;;;;16.32;52.17;97387.50;5530492;26;20623;-86
2024/04/12 04:25:07;;;;;;;5.60;5.10;;;;;;;16.49;52.17;97424.47;5500567;26;20236;-86
2024/04/12 04:27:36;;;;;;;5.43;4.67;;;;;;;16.43;52.33;97417.63;5529110;25;20265;-86
2024/04/12 04:30:07;;;;;;;7.37;5.47;;;;;;;16.38;52.50;97405.91;5504732;26;20312;-87
2024/04/12 04:32:36;;;;;;;433.40;44.00;;;;;;;-144.56;100.00;63967.13;5506648;26;20231;-88
2024/04/12 04:40:52;;;;;;;5.47;4.97;;;;;;;;;;5482313;25;1977797;-83
2024/04/12 04:43:23;;;;;;;10.30;6.13;;;;;;;;;;5540469;25;20273;-83
2024/04/12 04:45:51;;;;;;;7.23;5.10;;;;;;;;;;5520863;25;20269;-83
2024/04/12 04:48:17;;;;;;;6.97;5.60;;;;;;;;;;5545033;25;20277;-83
2024/04/12 04:50:45;;;;;;;8.57;5.30;;;;;;;;;;5548516;25;20557;-83
2024/04/12 04:53:11;;;;;;;5.67;4.73;;;;;;;;;;5530433;25;20292;-83
2024/04/12 04:55:41;;;;;;;9.57;5.77;;;;;;;;;;5533850;25;20223;-83
2024/04/12 04:58:09;;;;;;;7.23;5.50;;;;;;;;;;5519289;25;20343;-83
2024/04/12 05:00:40;;;;;;;8.00;5.43;;;;;;;;;;5546193;25;20883;-82
2024/04/12 05:03:07;;;;;;;7.93;4.90;;;;;;;;;;5507362;25;20259;-83
2024/04/12 05:05:38;;;;;;;7.20;5.00;;;;;;;;;;5533652;25;20275;-83
2024/04/12 05:08:08;;;;;;;6.43;5.43;;;;;;;;;;5519243;25;20261;-83
2024/04/12 05:10:39;;;;;;;6.53;5.57;;;;;;;;;;5519108;25;20232;-83
2024/04/12 05:13:06;;;;;;;5.90;5.13;;;;;;;;;;5522070;25;20339;-83
2024/04/12 05:15:52;;;;;;;6.47;5.80;;;;;;;;;;5520239;25;20331;-83
2024/04/12 05:18:18;;;;;;;7.83;5.33;;;;;;;;;;5543485;25;20287;-83
2024/04/12 05:20:47;;;;;;;5.53;4.53;;;;;;;;;;5513422;25;20244;-84
2024/04/12 05:23:16;;;;;;;10.40;5.90;;;;;;;;;;5529509;25;20223;-83
2024/04/12 05:25:46;;;;;;;6.67;4.97;;;;;;;;;;5545919;25;20231;-83
2024/04/12 05:28:12;;;;;;;8.20;5.10;;;;;;;;;;5544177;25;20327;-83
2024/04/12 05:30:44;;;;;;;11.67;6.50;;;;;;;;;;5546296;25;20235;-83
2024/04/12 05:33:11;;;;;;;7.73;5.60;;;;;;;;;;5519069;25;20303;-83
2024/04/12 05:35:40;;;;;;;6.57;5.83;;;;;;;;;;5546590;25;20235;-83
2024/04/12 05:38:07;;;;;;;11.60;5.80;;;;;;;;;;5542308;25;20721;-83
2024/04/12 05:40:39;;;;;;;8.80;5.57;;;;;;;;;;5509076;25;20678;-83
2024/04/12 05:43:13;;;;;;;7.33;5.30;;;;;;;;;;5531441;25;20791;-83
2024/04/12 05:45:47;;;;;;;6.43;5.27;;;;;;;;;;5509487;25;20230;-83
2024/04/12 05:48:13;;;;;;;9.17;5.10;;;;;;;;;;5506947;25;20719;-83
2024/04/12 05:50:42;;;;;;;5.27;4.87;;;;;;;;;;5523986;25;20232;-83
2024/04/12 05:53:11;;;;;;;5.80;5.20;;;;;;;;;;5502723;26;20220;-83
2024/04/12 05:55:44;;;;;;;9.10;5.93;;;;;;;;;;5530020;26;20236;-83
2024/04/12 05:58:11;;;;;;;6.10;5.50;;;;;;;;;;5503357;26;20228;-83
2024/04/12 06:00:41;;;;;;;6.97;5.80;;;;;;;;;;5506034;26;20241;-83
2024/04/12 06:03:13;;;;;;;11.83;5.90;;;;;;;;;;5502221;26;20687;-83
2024/04/12 06:05:42;;;;;;;8.80;5.43;;;;;;;;;;5528544;26;20698;-83
2024/04/12 06:08:08;;;;;;;13.50;5.93;;;;;;;;;;5504864;26;20270;-83
2024/04/12 06:10:39;;;;;;;7.33;5.47;;;;;;;;;;5529390;26;20232;-83
2024/04/12 06:13:06;;;;;;;8.83;5.33;;;;;;;;;;5511796;26;20283;-82
2024/04/12 06:15:36;;;;;;;5.10;4.60;;;;;;;;;;5521001;26;20726;-83
2024/04/12 06:18:02;;;;;;;9.73;4.70;;;;;;;;;;5510325;26;20267;-83
2024/04/12 06:20:33;;;;;;;5.93;4.80;;;;;;;;;;5493076;26;20237;-83
2024/04/12 06:23:06;;;;;;;6.83;5.27;;;;;;;;;;5509300;26;20228;-83
2024/04/12 06:25:38;;;;;;;8.40;4.87;;;;;;;;;;5521094;26;20276;-82
2024/04/12 06:28:11;;;;;;;6.67;4.77;;;;;;;;;;5512795;26;20567;-83
2024/04/12 06:30:40;;;;;;;8.53;5.30;;;;;;;;;;5493012;26;20304;-82
2024/04/12 06:33:06;;;;;;;8.03;4.93;;;;;;;;;;5515273;26;20760;-82
2024/04/12 06:35:37;;;;;;;6.00;4.87;;;;;;;;;;5492590;26;20277;-83
2024/04/12 06:38:08;;;;;;;7.27;4.57;;;;;;;;;;5492666;26;20224;-82
2024/04/12 06:40:37;;;;;;;5.20;4.70;;;;;;;;;;5513771;26;20238;-82
2024/04/12 06:43:05;;;;;;;7.27;4.03;;;;;;;;;;5518874;26;20224;-82
2024/04/12 06:45:41;;;;;;;5.63;4.63;;;;;;;;;;5529303;26;20266;-82
2024/04/12 06:48:07;;;;;;;5.40;4.17;;;;;;;;;;5502641;26;20223;-82
2024/04/12 06:50:38;;;;;;;5.77;4.63;;;;;;;;;;5529012;26;20224;-82
2024/04/12 06:53:08;;;;;;;7.70;4.50;;;;;;;;;;5526282;26;20223;-83
2024/04/12 06:55:45;;;;;;;5.73;4.80;;;;;;;;;;5529351;26;20351;-83
2024/04/12 06:58:12;;;;;;;6.03;4.60;;;;;;;;;;5527044;26;20697;-82
2024/04/12 07:00:40;;;;;;;5.90;4.30;;;;;;;;;;5503033;26;20241;-82
2024/04/12 07:03:15;;;;;;;7.50;5.00;;;;;;;;;;5500171;26;20239;-82
2024/04/12 07:05:48;;;;;;;6.43;4.63;;;;;;;;;;5527405;26;20232;-82
2024/04/12 07:08:16;;;;;;;6.27;4.97;;;;;;;;;;5490164;26;20229;-82
2024/04/12 07:10:48;;;;;;;5.20;3.90;;;;;;;;;;5520580;26;20273;-82
2024/04/12 07:13:15;;;;;;;6.87;4.60;;;;;;;;;;5527006;26;20726;-82
2024/04/12 07:15:45;;;;;;;6.83;4.10;;;;;;;;;;5504131;26;20725;-82
2024/04/12 07:18:11;;;;;;;7.30;4.63;;;;;;;;;;5506426;26;20225;-82
2024/04/12 07:20:40;;;;;;;9.20;4.33;;;;;;;;;;5492477;26;20221;-82
2024/04/12 07:23:10;;;;;;;6.23;5.00;;;;;;;;;;5489614;26;20316;-82
2024/04/12 07:25:39;;;;;;;9.90;4.97;;;;;;;;;;5516469;26;20780;-83
2024/04/12 07:28:07;;;;;;;4.70;4.20;;;;;;;;;;5512790;26;20258;-82
2024/04/12 07:30:37;;;;;;;6.70;4.40;;;;;;;;;;5517067;26;20237;-82
2024/04/12 07:33:05;;;;;;;4.43;4.03;;;;;;;;;;5489683;26;20763;-82
2024/04/12 07:35:33;;;;;;;5.13;4.33;;;;;;;;;;5503686;26;20259;-82
2024/04/12 07:37:59;;;;;;;4.87;4.23;;;;;;;;;;5525035;26;20224;-82
2024/04/12 07:40:31;;;;;;;6.03;4.40;;;;;;;;;;5505470;26;20274;-82
2024/04/12 07:42:58;;;;;;;7.37;4.63;;;;;;;;;;5498989;26;20226;-82
2024/04/12 07:45:29;;;;;;;4.50;4.10;;;;;;;;;;5506759;26;20236;-82
2024/04/12 07:48:00;;;;;;;6.97;4.13;;;;;;;;;;5521886;26;20275;-82
2024/04/12 07:50:33;;;;;;;4.03;3.73;;;;;;;;;;5509551;26;20227;-82
2024/04/12 07:53:10;;;;;;;4.33;3.93;;;;;;;;;;5518551;26;20278;-82
2024/04/12 07:55:44;;;;;;;7.57;4.67;;;;;;;;;;5514656;26;20555;-82
2024/04/12 07:58:10;;;;;;;9.27;4.77;;;;;;;;;;5526026;26;20539;-82
2024/04/12 08:00:45;;;;;;;5.83;3.97;;;;;;;;;;5527917;26;20277;-82
2024/04/12 08:03:15;;;;;;;4.13;3.83;;;;;;;;;;5489106;26;20274;-82
2024/04/12 08:05:59;;;;;;;5.93;4.53;;;;;;;;;;5492872;26;20735;-82
2024/04/12 08:08:28;;;;;;;5.80;4.20;;;;;;;;;;5525491;26;20367;-82
2024/04/12 08:11:11;;;;;;;7.70;4.03;;;;;;;;;;5528004;26;20710;-82
2024/04/12 08:13:44;;;;;;;8.63;4.03;;;;;;;;;;5501211;26;20229;-81
2024/04/12 08:16:14;;;;;;;5.57;3.97;;;;;;;;;;5491172;26;20225;-81
2024/04/12 08:18:44;;;;;;;4.70;4.23;;;;;;;;;;5513287;26;20232;-81
2024/04/12 08:21:12;;;;;;;7.03;4.57;;;;;;;;;;5491219;26;20275;-81
2024/04/12 08:23:43;;;;;;;12.57;5.20;;;;;;;;;;5488994;26;20617;-81
2024/04/12 08:26:16;;;;;;;5.53;4.47;;;;;;;;;;5508483;26;20228;-81
2024/04/12 08:28:43;;;;;;;7.47;4.50;;;;;;;;;;5493615;26;20787;-82
2024/04/12 08:31:12;;;;;;;5.53;4.17;;;;;;;;;;5510906;26;20606;-82
2024/04/12 08:33:40;;;;;;;8.57;4.53;;;;;;;;;;5524862;26;20348;-82
2024/04/12 08:36:13;;;;;;;5.57;3.83;;;;;;;;;;5527680;26;20742;-81
2024/04/12 08:38:53;;;;;;;6.77;3.67;;;;;;;;;;5499629;26;20252;-82
2024/04/12 08:41:31;;;;;;;4.87;4.30;;;;;;;;;;5525910;26;20331;-82
2024/04/12 08:43:58;;;;;;;5.43;4.00;;;;;;;;;;5488821;26;20275;-81
2024/04/12 08:46:33;;;;;;;7.87;3.83;;;;;;;;;;5515091;26;20287;-82
2024/04/12 08:48:59;;;;;;;4.57;3.50;;;;;;;;;;5488375;26;20236;-81
2024/04/12 08:51:32;;;;;;;4.60;4.13;;;;;;;;;;5497906;26;20772;-82
2024/04/12 08:54:04;;;;;;;5.93;3.80;;;;;;;;;;5524566;26;20239;-82
2024/04/12 08:56:35;;;;;;;6.80;4.07;;;;;;;;;;5516536;26;20580;-82
2024/04/12 08:59:05;;;;;;;3.83;3.53;;;;;;;;;;5512121;26;20582;-83
2024/04/12 09:01:37;;;;;;;5.67;3.70;;;;;;;;;;5527182;26;20560;-82
2024/04/12 09:04:04;;;;;;;5.33;3.90;;;;;;;;;;5522875;26;20799;-81
2024/04/12 09:06:35;;;;;;;8.90;5.10;;;;;;;;;;5504858;26;20290;-82
2024/04/12 09:09:01;;;;;;;4.60;3.93;;;;;;;;;;5524858;26;20613;-83
2024/04/12 09:11:31;;;;;;;4.83;4.43;;;;;;;;;;5527364;26;20291;-81
2024/04/12 09:14:09;;;;;;;9.23;4.20;;;;;;;;;;5518650;26;20308;-82
2024/04/12 09:16:43;;;;;;;6.67;3.43;;;;;;;;;;5510969;26;20282;-82
2024/04/12 09:19:13;;;;;;;4.40;3.95;;;;;;;;;;5489171;26;20237;-82
2024/04/12 09:21:47;;;;;;;4.53;3.92;;;;;;;;;;5513874;26;20278;-82
2024/04/12 09:24:16;;;;;;;6.10;3.85;;;;;;;;;;5510752;26;20226;-82
2024/04/12 09:26:55;;;;;;;5.22;4.35;;;;;;;;;;5519003;26;20232;-82
2024/04/12 09:29:27;;;;;;;4.32;3.88;;;;;;;;;;5527618;26;20269;-82
2024/04/12 09:34:40;;;;;;;5.25;4.22;;;;;;;;;;5493592;26;20305;-82
2024/04/12 09:40:04;;;;;;;4.65;3.88;;;;;;;;;;5499594;26;20237;-81
2024/04/12 09:42:44;;;;;;;5.72;4.40;;;;;;;;;;5511758;26;20231;-82
2024/04/12 09:45:20;;;;;;;4.25;3.95;;;;;;;;;;5530152;26;20251;-82
2024/04/12 10:37:51;;;;;;;5.80;4.03;;;;;;;;;;5529513;25;20274;-82
2024/04/12 10:40:21;;;;;;;6.60;3.90;;;;;;;;;;5502189;26;20274;-82
2024/04/12 10:42:56;;;;;;;3.95;3.55;;;;;;;;;;5526692;26;20232;-81
2024/04/12 10:45:26;;;;;;;5.40;4.13;;;;;;;;;;5527027;26;20223;-81
2024/04/12 10:47:54;;;;;;;6.07;4.07;;;;;;;;;;5526673;26;20299;-82
2024/04/12 10:50:27;;;;;;;8.63;4.95;;;;;;;;;;5529564;26;20274;-82
2024/04/12 10:52:57;;;;;;;5.18;3.78;;;;;;;;;;5502219;26;20282;-81
2024/04/12 10:55:29;;;;;;;4.68;3.85;;;;;;;;;;5526411;26;20259;-82
2024/04/12 10:57:57;;;;;;;5.93;3.97;;;;;;;;;;5504940;26;20803;-80
2024/04/12 11:00:28;;;;;;;5.93;3.58;;;;;;;;;;5526361;26;20738;-81
2024/04/12 11:02:59;;;;;;;6.78;4.65;;;;;;;;;;5504423;26;20223;-81
2024/04/12 11:05:39;;;;;;;5.00;4.20;;;;;;;;;;5526798;26;20231;-81
2024/04/12 11:08:10;;;;;;;9.20;4.10;;;;;;;;;;5493013;26;20240;-81
2024/04/12 11:10:39;;;;;;;6.07;4.10;;;;;;;;;;5514615;26;20236;-81
2024/04/12 11:13:16;;;;;;;4.97;4.43;;;;;;;;;;5492629;26;20237;-81
2024/04/12 11:32:18;;;;;;;11.10;4.55;;;;;;;;;;5504367;26;20273;-81
2024/04/12 11:34:46;;;;;;;5.80;4.10;;;;;;;;;;5526298;26;20224;-81
2024/04/12 11:37:17;;;;;;;6.72;4.35;;;;;;;;;;5526506;26;20231;-81
2024/04/12 11:39:51;;;;;;;6.85;4.38;;;;;;;;;;5525315;26;20652;-81
2024/04/12 11:42:18;;;;;;;5.18;4.00;;;;;;;;;;5526121;26;20228;-81
2024/04/12 11:44:47;;;;;;;4.18;3.42;;;;;;;;;;5528363;26;20232;-81
2024/04/12 11:47:16;;;;;;;7.43;4.63;;;;;;;;;;5509128;26;20233;-81
2024/04/12 11:49:45;;;;;;;6.78;3.97;;;;;;;;;;5490602;26;20233;-81
2024/04/12 11:52:15;;;;;;;7.78;4.47;;;;;;;;;;5489560;26;20268;-82
2024/04/12 11:54:46;;;;;;;8.73;4.18;;;;;;;;;;5499528;26;20591;-81
2024/04/12 11:57:12;;;;;;;4.93;4.38;;;;;;;;;;5526091;26;20243;-81
2024/04/12 11:59:43;;;;;;;7.45;3.90;;;;;;;;;;5527704;26;20270;-81
2024/04/12 12:02:14;;;;;;;5.13;3.90;;;;;;;;;;5503144;26;20234;-81
2024/04/12 12:04:42;;;;;;;6.45;3.78;;;;;;;;;;5502167;26;20280;-81
2024/04/12 12:07:09;;;;;;;7.63;4.28;;;;;;;;;;5502155;26;20353;-81
2024/04/12 12:09:40;;;;;;;6.80;4.35;;;;;;;;;;5526929;26;20236;-81
2024/04/12 12:12:10;;;;;;;8.63;4.47;;;;;;;;;;5525675;26;20236;-82
2024/04/12 12:14:41;;;;;;;5.45;3.88;;;;;;;;;;5504715;26;20267;-81
2024/04/12 12:17:07;;;;;;;4.82;3.63;;;;;;;;;;5522739;26;20303;-81
2024/04/12 12:19:35;;;;;;;5.70;4.15;;;;;;;;;;5505814;26;20224;-81
2024/04/12 12:22:01;;;;;;;4.55;3.75;;;;;;;;;;5500868;26;20743;-81
2024/04/12 12:24:29;;;;;;;5.53;4.15;;;;;;;;;;5527978;26;20697;-81
2024/04/12 12:26:58;;;;;;;4.45;3.90;;;;;;;;;;5521840;26;20235;-81
2024/04/12 12:29:28;;;;;;;4.05;3.28;;;;;;;;;;5491009;26;20272;-81
2024/04/12 12:31:55;;;;;;;3.83;3.53;;;;;;;;;;5488740;26;20229;-81
2024/04/12 12:34:23;;;;;;;5.82;4.82;;;;;;;;;;5491029;26;20349;-81
2024/04/12 12:36:50;;;;;;;5.03;3.63;;;;;;;;;;5495405;26;20706;-81
2024/04/12 12:39:19;;;;;;;4.20;3.85;;;;;;;;;;5527567;26;20291;-81
2024/04/12 12:41:45;;;;;;;7.50;3.95;;;;;;;;;;5524300;26;20239;-82
2024/04/12 12:44:18;;;;;;;4.85;4.35;;;;;;;;;;5527862;26;20332;-81
2024/04/12 12:46:44;;;;;;;12.32;6.25;;;;;;;;;;5524992;26;20247;-81
2024/04/12 12:49:12;;;;;;;6.95;4.63;;;;;;;;;;5528036;26;20224;-81
2024/04/12 12:51:40;;;;;;;3.83;3.42;;;;;;;;;;5524508;26;20270;-81
2024/04/12 12:54:11;;;;;;;4.65;3.22;;;;;;;;;;5527461;26;20240;-81
2024/04/12 12:56:40;;;;;;;3.85;3.53;;;;;;;;;;5500297;26;20266;-81
2024/04/12 12:59:09;;;;;;;4.75;3.67;;;;;;;;;;5503021;26;20233;-81
2024/04/12 13:01:41;;;;;;;4.18;3.85;;;;;;;;;;5512990;26;20272;-81
2024/04/12 13:04:10;;;;;;;9.93;4.25;;;;;;;;;;5520892;26;20262;-81
2024/04/12 13:06:36;;;;;;;4.03;3.70;;;;;;;;;;5528761;26;20351;-81
2024/04/12 13:09:08;;;;;;;5.40;4.07;;;;;;;;;;5502848;26;20245;-81
2024/04/12 13:11:34;;;;;;;3.63;3.30;;;;;;;;;;5491780;26;20229;-81
2024/04/12 13:14:02;;;;;;;6.28;4.00;;;;;;;;;;5518862;26;20401;-81
2024/04/12 13:16:29;;;;;;;5.18;3.90;;;;;;;;;;5509315;26;20715;-82
2024/04/12 13:19:00;;;;;;;7.72;3.85;;;;;;;;;;5500070;26;20248;-81
2024/04/12 13:21:26;;;;;;;4.60;4.15;;;;;;;;;;5510693;26;20590;-81
2024/04/12 13:23:56;;;;;;;4.82;3.53;;;;;;;;;;5498938;26;20233;-82
2024/04/12 13:26:31;;;;;;;6.47;3.88;;;;;;;;;;5491372;26;20225;-82
2024/04/12 13:29:00;;;;;;;4.15;3.75;;;;;;;;;;5529514;26;20312;-82
2024/04/12 13:31:29;;;;;;;4.07;3.63;;;;;;;;;;5504242;26;20583;-81
2024/04/12 13:33:57;;;;;;;4.18;3.88;;;;;;;;;;5503949;26;20575;-81
2024/04/12 13:36:29;;;;;;;4.38;3.35;;;;;;;;;;5529281;26;20236;-81
2024/04/12 13:38:55;;;;;;;7.25;3.85;;;;;;;;;;5505829;26;20270;-82
2024/04/12 13:41:23;;;;;;;6.72;3.25;;;;;;;;;;5505721;26;20237;-81
2024/04/12 13:43:49;;;;;;;6.10;3.30;;;;;;;;;;5512386;26;20582;-81
2024/04/12 13:51:50;;;;;;;7.30;3.75;;;;;;;;;;5493939;26;20275;-82
2024/04/12 13:54:20;;;;;;;6.93;3.55;;;;;;;;;;5517120;26;20718;-81
2024/04/12 13:56:47;;;;;;;4.90;3.53;;;;;;;;;;5527996;26;20353;-82
2024/04/12 13:59:15;;;;;;;5.80;3.83;;;;;;;;;;5529793;26;20261;-82
2024/04/12 14:01:41;;;;;;;4.55;4.13;;;;;;;;;;5513067;26;20232;-81
2024/04/12 14:04:18;;;;;;;5.22;3.95;;;;;;;;;;5517909;26;20664;-82
2024/04/12 14:06:46;;;;;;;5.15;4.75;;;;;;;;;;5490792;26;20244;-82
2024/04/12 14:09:21;;;;;;;4.47;4.07;;;;;;;;;;5523486;26;20232;-81
2024/04/12 14:11:51;;;;;;;6.35;3.88;;;;;;;;;;5526991;26;20274;-83
2024/04/12 14:14:20;;;;;;;5.47;3.70;;;;;;;;;;5517706;26;20236;-83
2024/04/12 14:16:49;;;;;;;6.05;4.03;;;;;;;;;;5515476;26;20232;-82
2024/04/12 14:19:17;;;;;;;5.18;3.30;;;;;;;;;;5516182;26;20731;-82
2024/04/12 14:21:47;;;;;;;5.40;3.70;;;;;;;;;;5517486;26;20224;-82
2024/04/12 14:24:56;;;;;;;4.93;3.67;;;;;;;;;;5527256;26;20248;-81
2024/04/12 14:27:03;;;;;;;3.75;3.45;;;;;;;;;;5528925;26;20826;-82
2024/04/12 14:29:29;;;;;;;4.47;3.45;;;;;;;;;;5527254;26;20239;-81
2024/04/12 14:31:58;;;;;;;3.97;3.58;;;;;;;;;;5523306;26;20329;-82
2024/04/12 14:34:29;;;;;;;3.70;3.08;;;;;;;;;;5509453;26;20361;-82
2024/04/12 14:36:57;;;;;;;6.28;3.60;;;;;;;;;;5504858;26;20224;-81
2024/04/12 14:39:28;;;;;;;6.40;3.83;;;;;;;;;;5505900;26;20241;-81
2024/04/12 14:41:57;;;;;;;6.75;3.92;;;;;;;;;;5492970;26;20297;-82
2024/04/12 14:44:22;;;;;;;5.88;4.10;;;;;;;;;;5513140;26;20305;-82
2024/04/12 14:46:51;;;;;;;4.63;4.28;;;;;;;;;;5493502;26;20244;-82
2024/04/12 14:49:16;;;;;;;5.65;3.85;;;;;;;;;;5514495;26;20232;-82
2024/04/12 14:51:48;;;;;;;7.07;4.43;;;;;;;;;;5517312;26;20765;-82
2024/04/12 14:54:13;;;;;;;4.05;3.65;;;;;;;;;;5514248;26;20232;-82
2024/04/12 14:56:43;;;;;;;4.82;4.18;;;;;;;;;;5505449;26;20836;-82
2024/04/12 14:59:11;;;;;;;5.43;4.03;;;;;;;;;;5515984;26;20240;-82
2024/04/12 15:01:39;;;;;;;7.90;4.85;;;;;;;;;;5506031;26;21476;-82